sensor_id;sensor_type;location;lat;lon;timestamp;temperature;humidity
48043;DHT22;33988;47.992;8.820;2023-05-07T00:01:02;20.60;52.40
48043;DHT22;33988;47.992;8.820;2023-05-07T00:03:37;20.60;52.50
48043;DHT22;33988;47.992;8.820;2023-05-07T00:06:04;20.60;52.50
48043;DHT22;33988;47.992;8.820;2023-05-07T00:08:34;20.50;52.40
48043;DHT22;33988;47.992;8.820;2023-05-07T00:11:06;20.50;52.50
48043;DHT22;33988;47.992;8.820;2023-05-07T00:13:38;20.50;52.50
48043;DHT22;33988;47.992;8.820;2023-05-07T00:16:07;20.50;52.50
48043;DHT22;33988;47.992;8.820;2023-05-07T00:18:34;20.50;52.60
48043;DHT22;33988;47.992;8.820;2023-05-07T00:21:03;20.40;52.60
48043;DHT22;33988;47.992;8.820;2023-05-07T00:23:30;20.40;52.60
48043;DHT22;33988;47.992;8.820;2023-05-07T00:26:04;20.40;52.60
48043;DHT22;33988;47.992;8.820;2023-05-07T00:28:31;20.40;52.60
48043;DHT22;33988;47.992;8.820;2023-05-07T00:30:58;20.40;52.70
48043;DHT22;33988;47.992;8.820;2023-05-07T00:33:25;20.30;52.60
48043;DHT22;33988;47.992;8.820;2023-05-07T00:35:56;20.30;52.70
48043;DHT22;33988;47.992;8.820;2023-05-07T00:38:27;20.30;52.80
48043;DHT22;33988;47.992;8.820;2023-05-07T00:40:54;20.30;52.80
48043;DHT22;33988;47.992;8.820;2023-05-07T00:43:23;20.30;52.80
48043;DHT22;33988;47.992;8.820;2023-05-07T00:45:50;20.30;52.80
48043;DHT22;33988;47.992;8.820;2023-05-07T00:48:22;20.20;52.80
48043;DHT22;33988;47.992;8.820;2023-05-07T00:50:52;20.20;52.90
48043;DHT22;33988;47.992;8.820;2023-05-07T00:53:24;20.20;52.90
48043;DHT22;33988;47.992;8.820;2023-05-07T00:55:52;20.20;52.90
48043;DHT22;33988;47.992;8.820;2023-05-07T00:58:19;20.20;52.90
48043;DHT22;33988;47.992;8.820;2023-05-07T01:00:50;20.20;52.90
48043;DHT22;33988;47.992;8.820;2023-05-07T01:03:20;20.10;52.90
48043;DHT22;33988;47.992;8.820;2023-05-07T01:05:48;20.10;52.90
48043;DHT22;33988;47.992;8.820;2023-05-07T01:08:17;20.10;52.90
48043;DHT22;33988;47.992;8.820;2023-05-07T01:10:45;20.10;52.90
48043;DHT22;33988;47.992;8.820;2023-05-07T01:13:16;20.10;52.90
48043;DHT22;33988;47.992;8.820;2023-05-07T01:15:44;20.10;52.90
48043;DHT22;33988;47.992;8.820;2023-05-07T01:18:14;20.00;52.90
48043;DHT22;33988;47.992;8.820;2023-05-07T01:20:42;20.00;52.90
48043;DHT22;33988;47.992;8.820;2023-05-07T01:23:11;20.00;52.90
48043;DHT22;33988;47.992;8.820;2023-05-07T01:25:39;20.00;52.90
48043;DHT22;33988;47.992;8.820;2023-05-07T01:28:06;20.00;53.00
48043;DHT22;33988;47.992;8.820;2023-05-07T01:30:36;20.00;53.00
48043;DHT22;33988;47.992;8.820;2023-05-07T01:33:11;20.00;53.70
48043;DHT22;33988;47.992;8.820;2023-05-07T01:35:45;20.00;53.00
48043;DHT22;33988;47.992;8.820;2023-05-07T01:38:14;20.00;53.00
48043;DHT22;33988;47.992;8.820;2023-05-07T01:40:41;19.90;53.00
48043;DHT22;33988;47.992;8.820;2023-05-07T01:43:09;19.90;53.00
48043;DHT22;33988;47.992;8.820;2023-05-07T01:45:39;19.80;53.00
48043;DHT22;33988;47.992;8.820;2023-05-07T01:48:07;19.80;53.00
48043;DHT22;33988;47.992;8.820;2023-05-07T01:50:36;19.80;53.00
48043;DHT22;33988;47.992;8.820;2023-05-07T01:53:06;19.80;53.10
48043;DHT22;33988;47.992;8.820;2023-05-07T01:55:35;19.70;53.10
48043;DHT22;33988;47.992;8.820;2023-05-07T01:58:04;19.70;53.10
48043;DHT22;33988;47.992;8.820;2023-05-07T02:00:31;19.70;53.10
48043;DHT22;33988;47.992;8.820;2023-05-07T02:03:00;19.70;53.20
48043;DHT22;33988;47.992;8.820;2023-05-07T02:05:30;19.70;53.20
48043;DHT22;33988;47.992;8.820;2023-05-07T02:07:59;19.70;53.30
48043;DHT22;33988;47.992;8.820;2023-05-07T02:10:29;19.70;53.30
48043;DHT22;33988;47.992;8.820;2023-05-07T02:12:59;19.70;53.20
48043;DHT22;33988;47.992;8.820;2023-05-07T02:15:28;19.70;53.30
48043;DHT22;33988;47.992;8.820;2023-05-07T02:18:05;19.70;53.30
48043;DHT22;33988;47.992;8.820;2023-05-07T02:20:34;19.60;53.20
48043;DHT22;33988;47.992;8.820;2023-05-07T02:23:01;19.60;53.20
48043;DHT22;33988;47.992;8.820;2023-05-07T02:25:28;19.60;53.20
48043;DHT22;33988;47.992;8.820;2023-05-07T02:27:56;19.60;53.20
48043;DHT22;33988;47.992;8.820;2023-05-07T02:30:23;19.60;53.20
48043;DHT22;33988;47.992;8.820;2023-05-07T02:32:51;19.60;53.20
48043;DHT22;33988;47.992;8.820;2023-05-07T02:35:18;19.60;53.20
48043;DHT22;33988;47.992;8.820;2023-05-07T02:37:45;19.60;53.10
48043;DHT22;33988;47.992;8.820;2023-05-07T02:40:13;19.60;53.10
48043;DHT22;33988;47.992;8.820;2023-05-07T02:42:40;19.50;53.10
48043;DHT22;33988;47.992;8.820;2023-05-07T02:45:07;19.50;53.10
48043;DHT22;33988;47.992;8.820;2023-05-07T02:47:35;19.50;53.00
48043;DHT22;33988;47.992;8.820;2023-05-07T02:50:02;19.40;53.00
48043;DHT22;33988;47.992;8.820;2023-05-07T02:52:30;19.40;53.00
48043;DHT22;33988;47.992;8.820;2023-05-07T02:54:56;19.40;53.00
48043;DHT22;33988;47.992;8.820;2023-05-07T02:57:23;19.40;53.10
48043;DHT22;33988;47.992;8.820;2023-05-07T02:59:50;19.40;53.10
48043;DHT22;33988;47.992;8.820;2023-05-07T03:02:18;19.30;53.00
48043;DHT22;33988;47.992;8.820;2023-05-07T03:04:47;19.30;53.00
48043;DHT22;33988;47.992;8.820;2023-05-07T03:07:18;19.30;53.00
48043;DHT22;33988;47.992;8.820;2023-05-07T03:09:49;19.30;53.00
48043;DHT22;33988;47.992;8.820;2023-05-07T03:12:19;19.30;53.00
48043;DHT22;33988;47.992;8.820;2023-05-07T03:14:46;19.20;53.00
48043;DHT22;33988;47.992;8.820;2023-05-07T03:17:16;19.20;53.00
48043;DHT22;33988;47.992;8.820;2023-05-07T03:19:43;19.20;53.00
48043;DHT22;33988;47.992;8.820;2023-05-07T03:22:14;19.20;53.00
48043;DHT22;33988;47.992;8.820;2023-05-07T03:24:43;19.10;53.00
48043;DHT22;33988;47.992;8.820;2023-05-07T03:27:10;18.90;53.10
48043;DHT22;33988;47.992;8.820;2023-05-07T03:29:39;19.00;53.00
48043;DHT22;33988;47.992;8.820;2023-05-07T03:32:06;19.00;53.00
48043;DHT22;33988;47.992;8.820;2023-05-07T03:34:36;19.00;53.00
48043;DHT22;33988;47.992;8.820;2023-05-07T03:37:05;19.00;53.10
48043;DHT22;33988;47.992;8.820;2023-05-07T03:39:32;18.90;53.10
48043;DHT22;33988;47.992;8.820;2023-05-07T03:42:01;18.90;53.10
48043;DHT22;33988;47.992;8.820;2023-05-07T03:44:34;18.90;53.10
48043;DHT22;33988;47.992;8.820;2023-05-07T03:47:06;18.80;53.20
48043;DHT22;33988;47.992;8.820;2023-05-07T03:49:44;18.80;53.20
48043;DHT22;33988;47.992;8.820;2023-05-07T03:52:14;18.80;53.20
48043;DHT22;33988;47.992;8.820;2023-05-07T03:54:41;18.80;53.20
48043;DHT22;33988;47.992;8.820;2023-05-07T03:57:08;18.70;53.20
48043;DHT22;33988;47.992;8.820;2023-05-07T03:59:35;18.70;53.20
48043;DHT22;33988;47.992;8.820;2023-05-07T04:02:04;18.70;53.20
48043;DHT22;33988;47.992;8.820;2023-05-07T04:04:31;18.70;53.20
48043;DHT22;33988;47.992;8.820;2023-05-07T04:07:01;18.60;53.20
48043;DHT22;33988;47.992;8.820;2023-05-07T04:09:29;18.60;53.20
48043;DHT22;33988;47.992;8.820;2023-05-07T04:11:56;18.60;53.30
48043;DHT22;33988;47.992;8.820;2023-05-07T04:14:23;18.60;53.30
48043;DHT22;33988;47.992;8.820;2023-05-07T04:16:52;18.60;53.30
48043;DHT22;33988;47.992;8.820;2023-05-07T04:19:24;18.60;53.40
48043;DHT22;33988;47.992;8.820;2023-05-07T04:21:53;18.50;53.40
48043;DHT22;33988;47.992;8.820;2023-05-07T04:24:20;18.50;53.40
48043;DHT22;33988;47.992;8.820;2023-05-07T04:26:47;18.50;53.40
48043;DHT22;33988;47.992;8.820;2023-05-07T04:29:14;18.50;53.40
48043;DHT22;33988;47.992;8.820;2023-05-07T04:31:41;18.50;53.50
48043;DHT22;33988;47.992;8.820;2023-05-07T04:34:11;18.50;53.50
48043;DHT22;33988;47.992;8.820;2023-05-07T04:36:38;18.50;53.60
48043;DHT22;33988;47.992;8.820;2023-05-07T04:39:05;18.40;53.60
48043;DHT22;33988;47.992;8.820;2023-05-07T04:41:38;18.40;54.20
48043;DHT22;33988;47.992;8.820;2023-05-07T04:44:05;18.40;53.60
48043;DHT22;33988;47.992;8.820;2023-05-07T04:46:33;18.40;53.60
48043;DHT22;33988;47.992;8.820;2023-05-07T04:49:00;18.40;53.70
48043;DHT22;33988;47.992;8.820;2023-05-07T04:51:26;18.40;53.70
48043;DHT22;33988;47.992;8.820;2023-05-07T04:53:59;18.40;53.80
48043;DHT22;33988;47.992;8.820;2023-05-07T04:56:28;18.40;53.80
48043;DHT22;33988;47.992;8.820;2023-05-07T04:58:57;18.40;53.80
48043;DHT22;33988;47.992;8.820;2023-05-07T05:01:24;18.40;53.80
48043;DHT22;33988;47.992;8.820;2023-05-07T05:03:51;18.40;53.80
48043;DHT22;33988;47.992;8.820;2023-05-07T05:06:18;18.40;53.90
48043;DHT22;33988;47.992;8.820;2023-05-07T05:08:45;18.40;54.00
48043;DHT22;33988;47.992;8.820;2023-05-07T05:11:14;18.40;54.00
48043;DHT22;33988;47.992;8.820;2023-05-07T05:13:43;18.40;54.10
48043;DHT22;33988;47.992;8.820;2023-05-07T05:16:17;18.40;54.10
48043;DHT22;33988;47.992;8.820;2023-05-07T05:18:47;18.40;54.10
48043;DHT22;33988;47.992;8.820;2023-05-07T05:21:14;18.40;54.10
48043;DHT22;33988;47.992;8.820;2023-05-07T05:23:47;18.40;54.10
48043;DHT22;33988;47.992;8.820;2023-05-07T05:26:14;18.20;54.30
48043;DHT22;33988;47.992;8.820;2023-05-07T05:28:44;18.40;54.10
48043;DHT22;33988;47.992;8.820;2023-05-07T05:31:11;18.50;54.20
48043;DHT22;33988;47.992;8.820;2023-05-07T05:33:38;18.50;54.30
48043;DHT22;33988;47.992;8.820;2023-05-07T05:36:09;18.50;54.30
48043;DHT22;33988;47.992;8.820;2023-05-07T05:38:39;18.50;54.40
48043;DHT22;33988;47.992;8.820;2023-05-07T05:41:08;18.50;54.40
48043;DHT22;33988;47.992;8.820;2023-05-07T05:43:40;18.60;54.40
48043;DHT22;33988;47.992;8.820;2023-05-07T05:46:07;18.60;54.40
48043;DHT22;33988;47.992;8.820;2023-05-07T05:48:38;18.60;54.50
48043;DHT22;33988;47.992;8.820;2023-05-07T05:51:05;18.70;54.60
48043;DHT22;33988;47.992;8.820;2023-05-07T05:53:32;18.70;54.60
48043;DHT22;33988;47.992;8.820;2023-05-07T05:55:59;18.80;54.70
48043;DHT22;33988;47.992;8.820;2023-05-07T05:58:26;18.80;54.80
48043;DHT22;33988;47.992;8.820;2023-05-07T06:00:53;18.90;54.90
48043;DHT22;33988;47.992;8.820;2023-05-07T06:03:21;19.00;54.90
48043;DHT22;33988;47.992;8.820;2023-05-07T06:05:49;19.00;55.00
48043;DHT22;33988;47.992;8.820;2023-05-07T06:08:16;19.10;55.00
48043;DHT22;33988;47.992;8.820;2023-05-07T06:10:47;19.10;55.00
48043;DHT22;33988;47.992;8.820;2023-05-07T06:13:14;19.20;55.00
48043;DHT22;33988;47.992;8.820;2023-05-07T06:15:41;19.30;55.00
48043;DHT22;33988;47.992;8.820;2023-05-07T06:18:08;19.30;55.00
48043;DHT22;33988;47.992;8.820;2023-05-07T06:20:38;19.40;55.10
48043;DHT22;33988;47.992;8.820;2023-05-07T06:23:07;19.50;55.10
48043;DHT22;33988;47.992;8.820;2023-05-07T06:25:39;19.60;55.10
48043;DHT22;33988;47.992;8.820;2023-05-07T06:28:06;19.70;55.00
48043;DHT22;33988;47.992;8.820;2023-05-07T06:30:35;19.70;55.00
48043;DHT22;33988;47.992;8.820;2023-05-07T06:33:01;19.80;55.10
48043;DHT22;33988;47.992;8.820;2023-05-07T06:35:28;19.90;55.10
48043;DHT22;33988;47.992;8.820;2023-05-07T06:37:55;19.90;55.10
48043;DHT22;33988;47.992;8.820;2023-05-07T06:40:24;20.00;55.10
48043;DHT22;33988;47.992;8.820;2023-05-07T06:42:54;20.10;55.20
48043;DHT22;33988;47.992;8.820;2023-05-07T06:45:20;20.20;55.10
48043;DHT22;33988;47.992;8.820;2023-05-07T06:47:54;20.30;55.10
48043;DHT22;33988;47.992;8.820;2023-05-07T06:50:23;20.30;55.10
48043;DHT22;33988;47.992;8.820;2023-05-07T06:52:50;20.40;55.20
48043;DHT22;33988;47.992;8.820;2023-05-07T06:55:17;20.60;55.40
48043;DHT22;33988;47.992;8.820;2023-05-07T06:57:44;20.70;55.60
48043;DHT22;33988;47.992;8.820;2023-05-07T07:00:11;20.80;55.70
48043;DHT22;33988;47.992;8.820;2023-05-07T07:02:39;21.00;55.70
48043;DHT22;33988;47.992;8.820;2023-05-07T07:05:08;21.20;55.60
48043;DHT22;33988;47.992;8.820;2023-05-07T07:07:35;21.30;55.20
48043;DHT22;33988;47.992;8.820;2023-05-07T07:10:02;21.50;54.70
48043;DHT22;33988;47.992;8.820;2023-05-07T07:12:31;21.60;54.40
48043;DHT22;33988;47.992;8.820;2023-05-07T07:14:58;21.70;54.20
48043;DHT22;33988;47.992;8.820;2023-05-07T07:17:27;21.70;54.70
48043;DHT22;33988;47.992;8.820;2023-05-07T07:19:54;21.80;54.00
48043;DHT22;33988;47.992;8.820;2023-05-07T07:22:23;21.90;53.80
48043;DHT22;33988;47.992;8.820;2023-05-07T07:24:50;22.00;53.80
48043;DHT22;33988;47.992;8.820;2023-05-07T07:27:17;22.00;53.80
48043;DHT22;33988;47.992;8.820;2023-05-07T07:29:47;22.10;53.90
48043;DHT22;33988;47.992;8.820;2023-05-07T07:32:14;22.20;53.90
48043;DHT22;33988;47.992;8.820;2023-05-07T07:34:43;22.30;53.90
48043;DHT22;33988;47.992;8.820;2023-05-07T07:37:10;22.40;53.70
48043;DHT22;33988;47.992;8.820;2023-05-07T07:39:41;22.60;53.70
48043;DHT22;33988;47.992;8.820;2023-05-07T07:42:08;22.70;53.80
48043;DHT22;33988;47.992;8.820;2023-05-07T07:44:35;22.90;53.70
48043;DHT22;33988;47.992;8.820;2023-05-07T07:47:05;23.00;53.60
48043;DHT22;33988;47.992;8.820;2023-05-07T07:49:32;23.20;53.40
48043;DHT22;33988;47.992;8.820;2023-05-07T07:52:01;23.30;53.10
48043;DHT22;33988;47.992;8.820;2023-05-07T07:54:28;23.40;52.80
48043;DHT22;33988;47.992;8.820;2023-05-07T07:56:58;23.60;52.60
48043;DHT22;33988;47.992;8.820;2023-05-07T07:59:25;23.70;52.40
48043;DHT22;33988;47.992;8.820;2023-05-07T08:01:52;23.80;52.30
48043;DHT22;33988;47.992;8.820;2023-05-07T08:04:22;23.90;52.30
48043;DHT22;33988;47.992;8.820;2023-05-07T08:06:51;24.00;52.10
48043;DHT22;33988;47.992;8.820;2023-05-07T08:09:20;24.10;51.90
48043;DHT22;33988;47.992;8.820;2023-05-07T08:11:50;24.20;51.60
48043;DHT22;33988;47.992;8.820;2023-05-07T08:14:20;24.30;51.40
48043;DHT22;33988;47.992;8.820;2023-05-07T08:16:49;24.40;51.20
48043;DHT22;33988;47.992;8.820;2023-05-07T08:19:16;24.40;51.00
48043;DHT22;33988;47.992;8.820;2023-05-07T08:21:46;24.50;50.90
48043;DHT22;33988;47.992;8.820;2023-05-07T08:24:19;24.60;50.70
48043;DHT22;33988;47.992;8.820;2023-05-07T08:26:46;24.60;50.70
48043;DHT22;33988;47.992;8.820;2023-05-07T08:29:16;24.80;50.80
48043;DHT22;33988;47.992;8.820;2023-05-07T08:31:45;24.80;50.50
48043;DHT22;33988;47.992;8.820;2023-05-07T08:34:12;24.90;50.20
48043;DHT22;33988;47.992;8.820;2023-05-07T08:36:39;24.90;49.90
48043;DHT22;33988;47.992;8.820;2023-05-07T08:39:13;25.00;49.70
48043;DHT22;33988;47.992;8.820;2023-05-07T08:41:45;25.00;49.70
48043;DHT22;33988;47.992;8.820;2023-05-07T08:44:16;25.00;49.80
48043;DHT22;33988;47.992;8.820;2023-05-07T08:46:47;25.10;49.70
48043;DHT22;33988;47.992;8.820;2023-05-07T08:49:19;25.10;49.50
48043;DHT22;33988;47.992;8.820;2023-05-07T08:51:49;25.20;49.60
48043;DHT22;33988;47.992;8.820;2023-05-07T08:54:20;25.20;49.50
48043;DHT22;33988;47.992;8.820;2023-05-07T08:56:48;25.30;49.20
48043;DHT22;33988;47.992;8.820;2023-05-07T08:59:17;25.30;48.90
48043;DHT22;33988;47.992;8.820;2023-05-07T09:01:44;25.30;48.40
48043;DHT22;33988;47.992;8.820;2023-05-07T09:04:12;25.40;48.00
48043;DHT22;33988;47.992;8.820;2023-05-07T09:06:39;25.40;47.70
48043;DHT22;33988;47.992;8.820;2023-05-07T09:09:08;25.40;47.50
48043;DHT22;33988;47.992;8.820;2023-05-07T09:11:35;25.50;47.20
48043;DHT22;33988;47.992;8.820;2023-05-07T09:14:02;25.50;47.00
48043;DHT22;33988;47.992;8.820;2023-05-07T09:16:32;25.60;46.90
48043;DHT22;33988;47.992;8.820;2023-05-07T09:19:02;25.60;46.60
48043;DHT22;33988;47.992;8.820;2023-05-07T09:21:28;25.60;46.10
48043;DHT22;33988;47.992;8.820;2023-05-07T09:24:00;25.60;46.10
48043;DHT22;33988;47.992;8.820;2023-05-07T09:26:29;25.70;45.80
48043;DHT22;33988;47.992;8.820;2023-05-07T09:28:57;25.70;45.90
48043;DHT22;33988;47.992;8.820;2023-05-07T09:31:26;25.70;45.80
48043;DHT22;33988;47.992;8.820;2023-05-07T09:33:53;25.80;45.80
48043;DHT22;33988;47.992;8.820;2023-05-07T09:36:23;25.80;45.40
48043;DHT22;33988;47.992;8.820;2023-05-07T09:38:52;25.90;45.40
48043;DHT22;33988;47.992;8.820;2023-05-07T09:41:21;25.90;45.50
48043;DHT22;33988;47.992;8.820;2023-05-07T09:43:53;26.00;45.30
48043;DHT22;33988;47.992;8.820;2023-05-07T09:46:26;26.00;45.10
48043;DHT22;33988;47.992;8.820;2023-05-07T09:49:04;26.10;45.10
48043;DHT22;33988;47.992;8.820;2023-05-07T09:51:45;26.20;45.10
48043;DHT22;33988;47.992;8.820;2023-05-07T09:54:14;26.20;45.00
48043;DHT22;33988;47.992;8.820;2023-05-07T09:56:45;26.30;45.10
48043;DHT22;33988;47.992;8.820;2023-05-07T09:59:14;26.30;45.10
48043;DHT22;33988;47.992;8.820;2023-05-07T10:01:43;26.30;44.90
48043;DHT22;33988;47.992;8.820;2023-05-07T10:04:11;26.40;45.00
48043;DHT22;33988;47.992;8.820;2023-05-07T10:06:39;26.40;44.90
48043;DHT22;33988;47.992;8.820;2023-05-07T10:09:07;26.50;45.00
48043;DHT22;33988;47.992;8.820;2023-05-07T10:11:35;26.40;45.10
48043;DHT22;33988;47.992;8.820;2023-05-07T10:14:06;26.50;44.60
48043;DHT22;33988;47.992;8.820;2023-05-07T10:16:35;26.60;44.30
48043;DHT22;33988;47.992;8.820;2023-05-07T10:19:07;26.50;44.10
48043;DHT22;33988;47.992;8.820;2023-05-07T10:21:37;26.60;44.10
48043;DHT22;33988;47.992;8.820;2023-05-07T10:26:35;26.60;44.20
48043;DHT22;33988;47.992;8.820;2023-05-07T10:32:09;26.70;44.20
48043;DHT22;33988;47.992;8.820;2023-05-07T10:34:51;26.60;44.30
48043;DHT22;33988;47.992;8.820;2023-05-07T10:37:20;26.60;44.10
48043;DHT22;33988;47.992;8.820;2023-05-07T10:39:47;26.70;44.00
48043;DHT22;33988;47.992;8.820;2023-05-07T10:42:15;26.70;44.00
48043;DHT22;33988;47.992;8.820;2023-05-07T10:44:44;26.70;44.10
48043;DHT22;33988;47.992;8.820;2023-05-07T10:47:14;26.70;44.10
48043;DHT22;33988;47.992;8.820;2023-05-07T10:54:47;26.70;44.20
48043;DHT22;33988;47.992;8.820;2023-05-07T10:57:33;26.70;44.00
48043;DHT22;33988;47.992;8.820;2023-05-07T11:00:09;26.70;44.00
48043;DHT22;33988;47.992;8.820;2023-05-07T11:03:06;26.80;44.30
48043;DHT22;33988;47.992;8.820;2023-05-07T11:05:35;26.80;44.40
48043;DHT22;33988;47.992;8.820;2023-05-07T11:08:07;26.80;44.20
48043;DHT22;33988;47.992;8.820;2023-05-07T11:10:56;26.90;44.20
48043;DHT22;33988;47.992;8.820;2023-05-07T11:16:21;26.90;43.50
48043;DHT22;33988;47.992;8.820;2023-05-07T11:18:54;26.90;43.10
48043;DHT22;33988;47.992;8.820;2023-05-07T11:21:36;26.90;43.30
48043;DHT22;33988;47.992;8.820;2023-05-07T11:24:06;26.90;43.20
48043;DHT22;33988;47.992;8.820;2023-05-07T11:26:50;26.90;43.30
48043;DHT22;33988;47.992;8.820;2023-05-07T11:29:21;26.90;43.10
48043;DHT22;33988;47.992;8.820;2023-05-07T11:31:50;26.80;43.10
48043;DHT22;33988;47.992;8.820;2023-05-07T11:34:22;26.80;43.10
48043;DHT22;33988;47.992;8.820;2023-05-07T11:36:50;26.70;43.10
48043;DHT22;33988;47.992;8.820;2023-05-07T11:39:27;26.70;43.20
48043;DHT22;33988;47.992;8.820;2023-05-07T11:41:55;26.60;43.30
48043;DHT22;33988;47.992;8.820;2023-05-07T11:44:24;26.50;43.60
48043;DHT22;33988;47.992;8.820;2023-05-07T11:46:51;26.50;43.70
48043;DHT22;33988;47.992;8.820;2023-05-07T11:49:18;26.40;43.80
48043;DHT22;33988;47.992;8.820;2023-05-07T11:51:45;26.40;43.80
48043;DHT22;33988;47.992;8.820;2023-05-07T11:54:18;26.40;43.90
48043;DHT22;33988;47.992;8.820;2023-05-07T11:56:49;26.30;43.80
48043;DHT22;33988;47.992;8.820;2023-05-07T11:59:19;26.30;44.00
48043;DHT22;33988;47.992;8.820;2023-05-07T12:01:46;26.30;44.10
48043;DHT22;33988;47.992;8.820;2023-05-07T12:04:16;26.30;44.00
48043;DHT22;33988;47.992;8.820;2023-05-07T12:06:47;26.30;44.20
48043;DHT22;33988;47.992;8.820;2023-05-07T12:09:17;26.30;44.40
48043;DHT22;33988;47.992;8.820;2023-05-07T12:11:46;26.30;44.70
48043;DHT22;33988;47.992;8.820;2023-05-07T12:14:15;26.30;44.80
48043;DHT22;33988;47.992;8.820;2023-05-07T12:16:45;26.30;45.10
48043;DHT22;33988;47.992;8.820;2023-05-07T12:19:12;26.30;45.30
48043;DHT22;33988;47.992;8.820;2023-05-07T12:21:42;26.30;45.40
48043;DHT22;33988;47.992;8.820;2023-05-07T12:24:09;26.30;45.50
48043;DHT22;33988;47.992;8.820;2023-05-07T12:26:39;26.30;45.40
48043;DHT22;33988;47.992;8.820;2023-05-07T12:29:07;26.30;45.40
48043;DHT22;33988;47.992;8.820;2023-05-07T12:31:42;26.20;45.30
48043;DHT22;33988;47.992;8.820;2023-05-07T12:34:15;26.20;45.40
48043;DHT22;33988;47.992;8.820;2023-05-07T12:36:48;26.10;46.50
48043;DHT22;33988;47.992;8.820;2023-05-07T12:39:14;26.00;46.10
48043;DHT22;33988;47.992;8.820;2023-05-07T12:41:55;26.00;46.20
48043;DHT22;33988;47.992;8.820;2023-05-07T12:44:24;25.90;46.30
48043;DHT22;33988;47.992;8.820;2023-05-07T12:46:54;25.80;46.20
48043;DHT22;33988;47.992;8.820;2023-05-07T12:49:23;25.60;46.30
48043;DHT22;33988;47.992;8.820;2023-05-07T12:51:54;25.50;46.50
48043;DHT22;33988;47.992;8.820;2023-05-07T12:54:29;25.30;46.70
48043;DHT22;33988;47.992;8.820;2023-05-07T12:57:03;25.20;47.20
48043;DHT22;33988;47.992;8.820;2023-05-07T12:59:37;25.00;47.40
48043;DHT22;33988;47.992;8.820;2023-05-07T13:02:07;24.90;48.00
48043;DHT22;33988;47.992;8.820;2023-05-07T13:04:37;24.80;48.50
48043;DHT22;33988;47.992;8.820;2023-05-07T13:07:04;24.70;49.00
48043;DHT22;33988;47.992;8.820;2023-05-07T13:09:31;24.60;49.10
48043;DHT22;33988;47.992;8.820;2023-05-07T13:11:58;24.50;49.00
48043;DHT22;33988;47.992;8.820;2023-05-07T13:14:28;24.40;49.20
48043;DHT22;33988;47.992;8.820;2023-05-07T13:16:57;24.30;49.10
48043;DHT22;33988;47.992;8.820;2023-05-07T13:19:24;24.20;49.00
48043;DHT22;33988;47.992;8.820;2023-05-07T13:21:56;24.10;48.90
48043;DHT22;33988;47.992;8.820;2023-05-07T13:24:23;24.10;49.20
48043;DHT22;33988;47.992;8.820;2023-05-07T13:26:50;24.00;49.70
48043;DHT22;33988;47.992;8.820;2023-05-07T13:29:17;24.00;50.40
48043;DHT22;33988;47.992;8.820;2023-05-07T13:31:44;23.90;50.80
48043;DHT22;33988;47.992;8.820;2023-05-07T13:34:13;23.90;51.30
48043;DHT22;33988;47.992;8.820;2023-05-07T13:36:43;23.90;51.50
48043;DHT22;33988;47.992;8.820;2023-05-07T13:39:12;23.90;52.40
48043;DHT22;33988;47.992;8.820;2023-05-07T13:41:42;24.00;51.80
48043;DHT22;33988;47.992;8.820;2023-05-07T13:44:09;24.00;51.90
48043;DHT22;33988;47.992;8.820;2023-05-07T13:46:36;24.00;52.00
48043;DHT22;33988;47.992;8.820;2023-05-07T13:49:08;24.00;52.20
48043;DHT22;33988;47.992;8.820;2023-05-07T13:51:37;24.00;52.40
48043;DHT22;33988;47.992;8.820;2023-05-07T13:54:04;24.10;52.50
48043;DHT22;33988;47.992;8.820;2023-05-07T13:56:31;24.10;52.60
48043;DHT22;33988;47.992;8.820;2023-05-07T13:58:59;24.10;52.80
48043;DHT22;33988;47.992;8.820;2023-05-07T14:01:27;24.20;52.80
48043;DHT22;33988;47.992;8.820;2023-05-07T14:03:57;24.20;52.90
48043;DHT22;33988;47.992;8.820;2023-05-07T14:06:29;24.20;53.20
48043;DHT22;33988;47.992;8.820;2023-05-07T14:08:58;24.20;53.30
48043;DHT22;33988;47.992;8.820;2023-05-07T14:11:26;24.20;53.20
48043;DHT22;33988;47.992;8.820;2023-05-07T14:13:53;24.20;53.30
48043;DHT22;33988;47.992;8.820;2023-05-07T14:16:23;24.20;53.20
48043;DHT22;33988;47.992;8.820;2023-05-07T14:18:50;24.30;53.30
48043;DHT22;33988;47.992;8.820;2023-05-07T14:21:17;24.30;53.40
48043;DHT22;33988;47.992;8.820;2023-05-07T14:23:44;24.30;53.30
48043;DHT22;33988;47.992;8.820;2023-05-07T14:26:13;24.30;53.40
48043;DHT22;33988;47.992;8.820;2023-05-07T14:28:40;24.30;53.50
48043;DHT22;33988;47.992;8.820;2023-05-07T14:31:13;24.40;53.50
48043;DHT22;33988;47.992;8.820;2023-05-07T14:33:40;24.40;53.50
48043;DHT22;33988;47.992;8.820;2023-05-07T14:36:08;24.40;53.50
48043;DHT22;33988;47.992;8.820;2023-05-07T14:38:34;24.40;53.50
48043;DHT22;33988;47.992;8.820;2023-05-07T14:41:04;24.40;53.40
48043;DHT22;33988;47.992;8.820;2023-05-07T14:43:34;24.40;53.30
48043;DHT22;33988;47.992;8.820;2023-05-07T14:46:04;24.40;53.30
48043;DHT22;33988;47.992;8.820;2023-05-07T14:48:33;24.40;53.40
48043;DHT22;33988;47.992;8.820;2023-05-07T14:51:02;24.30;53.40
48043;DHT22;33988;47.992;8.820;2023-05-07T14:53:29;24.30;53.40
48043;DHT22;33988;47.992;8.820;2023-05-07T14:55:59;24.30;53.40
48043;DHT22;33988;47.992;8.820;2023-05-07T14:58:29;24.30;53.40
48043;DHT22;33988;47.992;8.820;2023-05-07T15:00:56;24.30;53.50
48043;DHT22;33988;47.992;8.820;2023-05-07T15:03:23;24.30;53.30
48043;DHT22;33988;47.992;8.820;2023-05-07T15:05:53;24.30;53.30
48043;DHT22;33988;47.992;8.820;2023-05-07T15:08:22;24.20;53.20
48043;DHT22;33988;47.992;8.820;2023-05-07T15:10:49;24.20;53.30
48043;DHT22;33988;47.992;8.820;2023-05-07T15:13:16;24.20;53.30
48043;DHT22;33988;47.992;8.820;2023-05-07T15:15:45;24.20;53.20
48043;DHT22;33988;47.992;8.820;2023-05-07T15:18:15;24.20;53.20
48043;DHT22;33988;47.992;8.820;2023-05-07T15:20:42;24.20;53.20
48043;DHT22;33988;47.992;8.820;2023-05-07T15:23:12;24.20;52.90
48043;DHT22;33988;47.992;8.820;2023-05-07T15:25:40;24.20;52.70
48043;DHT22;33988;47.992;8.820;2023-05-07T15:28:10;24.20;52.80
48043;DHT22;33988;47.992;8.820;2023-05-07T15:30:39;24.10;52.80
48043;DHT22;33988;47.992;8.820;2023-05-07T15:33:06;24.10;52.60
48043;DHT22;33988;47.992;8.820;2023-05-07T15:35:35;24.10;52.70
48043;DHT22;33988;47.992;8.820;2023-05-07T15:38:05;24.10;52.70
48043;DHT22;33988;47.992;8.820;2023-05-07T15:40:32;24.10;52.80
48043;DHT22;33988;47.992;8.820;2023-05-07T15:43:01;24.10;52.70
48043;DHT22;33988;47.992;8.820;2023-05-07T15:45:29;24.10;52.70
48043;DHT22;33988;47.992;8.820;2023-05-07T15:47:59;24.10;52.70
48043;DHT22;33988;47.992;8.820;2023-05-07T15:50:28;24.10;52.80
48043;DHT22;33988;47.992;8.820;2023-05-07T15:52:55;24.10;52.80
48043;DHT22;33988;47.992;8.820;2023-05-07T15:55:22;24.10;52.70